Time;durP1;ratioP1;P1;durP2;ratioP2;P2;SDS_P1;SDS_P2;PMS_P1;PMS_P2;Temp;Humidity;BMP_temperature;BMP_pressure;BME280_temperature;BME280_humidity;BME280_pressure;Samples;Min_cycle;Max_cycle;Signal;HPM_P1;HPM_P2
2021/03/17 00:06:07;;;;;;;18.88;11.70;;;23.00;33.10;;;;;;6236226;27;83394;-66
2021/03/17 00:09:26;;;;;;;18.50;11.95;;;23.10;32.30;;;;;;6239581;28;82994;-66
2021/03/17 00:12:45;;;;;;;18.13;11.85;;;23.00;32.30;;;;;;6237099;28;83321;-66
2021/03/17 00:16:05;;;;;;;18.20;11.38;;;23.10;32.40;;;;;;6244560;28;85269;-66
2021/03/17 00:19:24;;;;;;;19.40;12.27;;;23.10;33.10;;;;;;6246396;28;84011;-66
2021/03/17 00:22:43;;;;;;;17.33;11.60;;;23.00;32.90;;;;;;6222370;28;86105;-66
2021/03/17 00:26:02;;;;;;;20.42;12.57;;;23.00;32.70;;;;;;6240217;28;86383;-66
2021/03/17 00:29:21;;;;;;;17.90;12.77;;;23.00;32.70;;;;;;6247358;28;84791;-66
2021/03/17 00:32:40;;;;;;;16.52;11.80;;;23.00;32.90;;;;;;6233219;28;88579;-67
2021/03/17 00:35:59;;;;;;;19.05;12.10;;;23.00;32.90;;;;;;6236459;27;92454;-68
2021/03/17 00:39:18;;;;;;;19.38;12.80;;;23.00;32.70;;;;;;6234410;28;83775;-68
2021/03/17 00:42:37;;;;;;;19.85;12.07;;;23.00;33.20;;;;;;6235100;28;83628;-67
2021/03/17 00:45:56;;;;;;;16.45;11.68;;;23.00;33.20;;;;;;6243790;28;83333;-67
2021/03/17 00:49:01;;;;;;;20.83;11.73;;;23.00;32.60;;;;;;6245008;28;83931;-67
2021/03/17 00:52:02;;;;;;;18.73;12.40;;;23.00;32.80;;;;;;6227265;28;85775;-67
2021/03/17 00:55:22;;;;;;;17.40;11.45;;;23.00;32.60;;;;;;6246350;28;82679;-67
2021/03/17 00:58:51;;;;;;;18.45;11.13;;;23.00;32.40;;;;;;6215022;28;87531;-67
2021/03/17 01:01:52;;;;;;;20.70;12.48;;;23.00;32.70;;;;;;6235228;28;84822;-67
2021/03/17 01:04:52;;;;;;;17.50;11.63;;;23.00;32.70;;;;;;6210358;28;759858;-67
2021/03/17 01:07:53;;;;;;;17.70;11.65;;;23.00;31.70;;;;;;6240468;28;84312;-67
2021/03/17 01:10:53;;;;;;;18.50;11.88;;;22.90;31.70;;;;;;6221520;28;83473;-66
2021/03/17 01:13:54;;;;;;;18.23;12.15;;;23.00;32.00;;;;;;6241571;28;85067;-66
2021/03/17 01:16:55;;;;;;;16.60;11.40;;;23.00;32.30;;;;;;6218354;28;85556;-66
2021/03/17 01:19:55;;;;;;;19.38;12.73;;;23.00;32.60;;;;;;6247766;28;83375;-66
2021/03/17 01:22:56;;;;;;;18.25;12.77;;;23.00;32.20;;;;;;6239188;28;84538;-66
2021/03/17 01:25:56;;;;;;;18.20;11.45;;;23.00;32.60;;;;;;6241636;28;83735;-67
2021/03/17 01:28:57;;;;;;;16.02;11.20;;;23.00;32.60;;;;;;6232998;28;83679;-66
2021/03/17 01:31:57;;;;;;;16.73;10.90;;;23.00;32.50;;;;;;6238519;28;83233;-66
2021/03/17 01:34:58;;;;;;;18.73;11.13;;;22.90;32.40;;;;;;6242715;28;83510;-67
2021/03/17 01:37:58;;;;;;;16.08;10.88;;;23.00;32.50;;;;;;6230447;28;83377;-67
2021/03/17 01:40:59;;;;;;;20.45;12.27;;;22.90;32.60;;;;;;6242937;28;83604;-67
2021/03/17 01:43:59;;;;;;;18.10;11.73;;;22.90;32.50;;;;;;6239644;28;83007;-66
2021/03/17 01:47:00;;;;;;;13.57;10.18;;;22.90;32.40;;;;;;6240547;28;82894;-64
2021/03/17 01:50:00;;;;;;;13.32;10.18;;;22.90;32.20;;;;;;6227844;28;83585;-66
2021/03/17 01:53:01;;;;;;;17.73;11.30;;;22.90;32.70;;;;;;6241595;27;83788;-66
2021/03/17 01:56:01;;;;;;;14.90;10.40;;;22.90;31.90;;;;;;6239563;28;84059;-67
2021/03/17 01:59:02;;;;;;;15.65;10.65;;;22.90;32.60;;;;;;6241967;28;83357;-66
2021/03/17 02:02:02;;;;;;;14.73;10.00;;;22.90;32.70;;;;;;6238042;28;83103;-66
2021/03/17 02:05:03;;;;;;;14.80;10.70;;;22.90;32.70;;;;;;6244019;28;83645;-66
2021/03/17 02:08:03;;;;;;;13.85;9.57;;;22.90;32.40;;;;;;6237163;28;83550;-66
2021/03/17 02:11:04;;;;;;;16.77;10.80;;;22.90;32.40;;;;;;6221570;28;87975;-66
2021/03/17 02:14:05;;;;;;;15.57;10.32;;;22.90;32.20;;;;;;6234994;28;83451;-66
2021/03/17 02:17:05;;;;;;;16.70;10.25;;;22.90;32.40;;;;;;6242904;28;83010;-66
2021/03/17 02:20:06;;;;;;;15.27;9.85;;;22.90;32.50;;;;;;6241479;28;84517;-66
2021/03/17 02:23:06;;;;;;;14.95;9.88;;;22.90;31.90;;;;;;6232534;28;81759;-66
2021/03/17 02:26:07;;;;;;;13.82;10.23;;;22.90;31.60;;;;;;6236036;28;81753;-66
2021/03/17 02:29:07;;;;;;;16.05;10.70;;;22.90;31.50;;;;;;6225547;28;83121;-66
2021/03/17 02:32:08;;;;;;;13.70;9.70;;;22.90;31.50;;;;;;6234130;28;83389;-66
2021/03/17 02:35:08;;;;;;;13.13;9.40;;;22.90;31.70;;;;;;6247008;28;83303;-66
2021/03/17 02:38:09;;;;;;;13.57;9.68;;;22.90;32.20;;;;;;6234507;28;87011;-65
2021/03/17 02:41:09;;;;;;;13.60;9.00;;;22.90;31.70;;;;;;6237692;28;80730;-65
2021/03/17 02:44:10;;;;;;;14.15;9.63;;;22.90;32.10;;;;;;6244776;28;82749;-65
2021/03/17 02:47:11;;;;;;;13.57;10.00;;;22.90;32.10;;;;;;6228388;28;81092;-65
2021/03/17 02:50:11;;;;;;;13.50;9.77;;;22.90;31.80;;;;;;6245128;28;83266;-68
2021/03/17 02:53:13;;;;;;;12.90;9.18;;;22.90;32.30;;;;;;6230232;28;82723;-68
2021/03/17 02:56:13;;;;;;;15.48;9.45;;;22.90;32.40;;;;;;6245864;28;80631;-67
2021/03/17 02:59:14;;;;;;;12.90;9.50;;;22.90;32.50;;;;;;6240808;28;83077;-67
2021/03/17 03:02:15;;;;;;;12.93;8.63;;;22.90;32.20;;;;;;6239813;28;81269;-67
2021/03/17 03:05:15;;;;;;;13.55;9.68;;;22.80;32.30;;;;;;6243983;28;80911;-67
2021/03/17 03:08:16;;;;;;;13.02;9.40;;;22.90;32.30;;;;;;6229369;28;82788;-66
2021/03/17 03:11:16;;;;;;;13.88;9.07;;;22.90;32.00;;;;;;6235718;28;82809;-68
2021/03/17 03:14:17;;;;;;;13.05;9.65;;;22.80;32.30;;;;;;6242905;28;80653;-67
2021/03/17 03:17:17;;;;;;;13.30;9.15;;;22.80;32.50;;;;;;6238096;27;80318;-67
2021/03/17 03:20:18;;;;;;;13.13;9.18;;;22.80;32.60;;;;;;6231139;28;82977;-67
2021/03/17 03:23:18;;;;;;;14.15;9.85;;;22.80;32.30;;;;;;6240238;27;81239;-67
2021/03/17 03:26:19;;;;;;;13.48;9.00;;;22.80;32.30;;;;;;6234106;28;80607;-67
2021/03/17 03:29:19;;;;;;;11.90;8.93;;;22.80;32.50;;;;;;6236265;28;80518;-67
2021/03/17 03:32:20;;;;;;;12.40;9.52;;;22.80;32.60;;;;;;6234328;28;80409;-67
2021/03/17 03:35:20;;;;;;;12.85;8.68;;;22.80;31.90;;;;;;6242359;28;81512;-67
2021/03/17 03:38:21;;;;;;;12.77;9.05;;;22.80;32.10;;;;;;6246433;28;80681;-67
2021/03/17 03:41:21;;;;;;;12.88;9.27;;;22.90;32.10;;;;;;6253916;28;81327;-67
2021/03/17 03:44:22;;;;;;;15.98;9.32;;;22.90;32.30;;;;;;6253338;28;80531;-70
2021/03/17 03:47:22;;;;;;;12.98;8.95;;;22.80;32.70;;;;;;6249159;28;81101;-65
2021/03/17 03:50:23;;;;;;;10.68;8.27;;;22.80;32.70;;;;;;6243129;28;81257;-65
2021/03/17 03:53:23;;;;;;;10.30;7.93;;;22.80;32.80;;;;;;6211127;28;80619;-66
2021/03/17 03:56:24;;;;;;;10.18;8.23;;;22.90;33.10;;;;;;6238787;28;80513;-66
2021/03/17 03:59:24;;;;;;;12.30;9.18;;;22.80;32.90;;;;;;6239469;28;81294;-66
2021/03/17 04:02:25;;;;;;;11.18;8.63;;;22.90;32.50;;;;;;6247147;27;80828;-67
2021/03/17 04:05:25;;;;;;;11.65;8.40;;;22.90;32.70;;;;;;6238553;28;81852;-66
2021/03/17 04:08:26;;;;;;;10.55;8.18;;;22.90;32.70;;;;;;6223801;28;81406;-66
2021/03/17 04:11:27;;;;;;;11.68;8.82;;;22.80;32.80;;;;;;6240501;27;81380;-67
2021/03/17 04:14:27;;;;;;;11.40;8.18;;;22.90;32.80;;;;;;6233831;28;81658;-67
2021/03/17 04:17:28;;;;;;;14.18;9.18;;;22.90;33.20;;;;;;6220598;28;83477;-68
2021/03/17 04:20:28;;;;;;;11.40;8.38;;;22.90;33.30;;;;;;6241503;28;80507;-66
2021/03/17 04:23:29;;;;;;;12.32;8.95;;;22.90;32.50;;;;;;6234597;28;81645;-66
2021/03/17 04:26:30;;;;;;;13.25;9.35;;;22.90;31.90;;;;;;6242478;28;80736;-67
2021/03/17 04:29:30;;;;;;;10.98;8.73;;;22.90;31.80;;;;;;6250527;28;82256;-67
2021/03/17 04:32:31;;;;;;;12.93;8.75;;;22.90;31.60;;;;;;6232968;28;80750;-67
2021/03/17 04:35:31;;;;;;;13.43;8.98;;;22.90;31.60;;;;;;6238115;28;80809;-67
2021/03/17 04:38:32;;;;;;;13.13;9.50;;;22.90;31.30;;;;;;6247548;27;81741;-66
2021/03/17 04:41:32;;;;;;;15.18;10.27;;;22.90;31.10;;;;;;6204683;28;80415;-66
2021/03/17 04:44:33;;;;;;;14.05;9.75;;;23.00;31.00;;;;;;6237969;27;83499;-66
2021/03/17 04:47:33;;;;;;;12.90;9.50;;;23.00;30.90;;;;;;6232725;28;82932;-66
2021/03/17 04:50:34;;;;;;;13.77;10.05;;;23.10;30.80;;;;;;6221386;28;82321;-66
2021/03/17 04:53:35;;;;;;;15.07;10.27;;;23.10;30.80;;;;;;6234480;28;83673;-68
2021/03/17 04:56:35;;;;;;;15.32;10.23;;;23.10;30.80;;;;;;6236547;28;87452;-67
2021/03/17 04:59:36;;;;;;;14.52;10.13;;;23.10;30.70;;;;;;6239558;28;84055;-66
2021/03/17 05:02:36;;;;;;;16.33;10.85;;;23.10;30.70;;;;;;6218651;28;83283;-66
2021/03/17 05:05:39;;;;;;;16.60;10.00;;;23.10;30.60;;;;;;6242955;27;84148;-66
2021/03/17 05:08:39;;;;;;;17.67;11.18;;;23.10;30.50;;;;;;6240926;28;83026;-67
2021/03/17 05:11:40;;;;;;;14.48;10.73;;;23.20;30.50;;;;;;6235397;28;83718;-68
2021/03/17 05:14:40;;;;;;;16.30;11.52;;;23.20;30.80;;;;;;6242307;28;83745;-68
2021/03/17 05:17:41;;;;;;;17.90;11.60;;;23.20;31.30;;;;;;6241913;28;83335;-67
2021/03/17 05:20:41;;;;;;;14.02;10.23;;;23.20;31.80;;;;;;6237326;28;83585;-68
2021/03/17 05:23:42;;;;;;;15.45;11.20;;;23.20;31.30;;;;;;6226366;28;83661;-66
2021/03/17 05:26:42;;;;;;;16.48;11.90;;;23.20;31.00;;;;;;6247879;28;82895;-68
2021/03/17 05:29:43;;;;;;;16.27;11.60;;;23.20;31.10;;;;;;6242021;28;83579;-68
2021/03/17 05:32:43;;;;;;;22.13;12.02;;;23.20;31.50;;;;;;6243408;28;83224;-66
2021/03/17 05:35:44;;;;;;;17.20;10.93;;;23.20;31.70;;;;;;6240214;28;83134;-69
2021/03/17 05:38:45;;;;;;;16.77;12.27;;;23.30;31.30;;;;;;6240374;28;85276;-66
2021/03/17 05:41:45;;;;;;;17.13;11.77;;;23.30;31.30;;;;;;6233911;28;90869;-66
2021/03/17 05:44:46;;;;;;;14.02;10.70;;;23.30;31.80;;;;;;6235988;27;84456;-67
2021/03/17 05:47:46;;;;;;;17.02;10.98;;;23.30;32.10;;;;;;6231697;28;82939;-67
2021/03/17 05:50:47;;;;;;;17.70;11.18;;;23.30;32.30;;;;;;6239272;27;83304;-67
2021/03/17 05:53:47;;;;;;;15.48;11.82;;;23.30;32.90;;;;;;6246474;28;84679;-66
2021/03/17 05:56:48;;;;;;;15.45;10.95;;;23.30;33.40;;;;;;6231590;28;87932;-65
2021/03/17 05:59:48;;;;;;;16.35;11.35;;;23.40;34.30;;;;;;6223199;28;84703;-65
2021/03/17 06:02:49;;;;;;;16.88;11.27;;;23.40;34.70;;;;;;6233984;28;83943;-66
2021/03/17 06:05:49;;;;;;;15.63;10.90;;;23.40;34.90;;;;;;6241542;28;83502;-66
2021/03/17 06:08:50;;;;;;;15.20;10.63;;;23.40;35.30;;;;;;6230836;28;83519;-67
2021/03/17 06:11:50;;;;;;;16.52;11.32;;;23.40;35.70;;;;;;6224510;27;83112;-66
2021/03/17 06:14:51;;;;;;;15.82;11.80;;;23.40;36.20;;;;;;6245442;28;83613;-67
2021/03/17 06:17:51;;;;;;;15.52;10.82;;;23.40;35.80;;;;;;6235547;27;83588;-71
2021/03/17 06:20:52;;;;;;;17.67;11.20;;;23.40;36.20;;;;;;6238213;28;84556;-66
2021/03/17 06:23:52;;;;;;;13.32;10.27;;;23.40;35.60;;;;;;6235601;28;86676;-69
2021/03/17 06:26:53;;;;;;;20.25;11.98;;;23.40;34.90;;;;;;6220000;28;84077;-68
2021/03/17 06:29:54;;;;;;;18.27;11.38;;;23.40;35.10;;;;;;6235072;28;84370;-69
2021/03/17 06:32:54;;;;;;;19.90;11.93;;;23.40;34.30;;;;;;6221945;28;86013;-68
2021/03/17 06:35:55;;;;;;;16.20;10.20;;;23.40;34.50;;;;;;6235709;28;83341;-67
2021/03/17 06:38:55;;;;;;;14.95;10.57;;;23.40;34.10;;;;;;6218331;28;85531;-66
2021/03/17 06:41:56;;;;;;;16.38;11.63;;;23.40;34.80;;;;;;6241721;28;83522;-68
2021/03/17 06:44:56;;;;;;;16.33;10.82;;;23.50;34.60;;;;;;6235449;28;83153;-68
2021/03/17 06:47:57;;;;;;;15.55;11.13;;;23.40;34.40;;;;;;6241006;27;83528;-67
2021/03/17 06:50:57;;;;;;;17.13;11.13;;;23.40;34.10;;;;;;6231933;28;84087;-68
2021/03/17 06:53:59;;;;;;;18.08;11.05;;;23.40;34.10;;;;;;6237580;28;83416;-69
2021/03/17 06:56:59;;;;;;;19.15;11.27;;;23.40;33.50;;;;;;6240341;27;83414;-68
2021/03/17 07:00:00;;;;;;;15.27;11.05;;;23.40;33.40;;;;;;6244810;28;83536;-72
2021/03/17 07:03:00;;;;;;;19.48;11.02;;;23.40;33.50;;;;;;6230987;27;83083;-69
2021/03/17 07:06:01;;;;;;;13.85;10.32;;;23.30;33.80;;;;;;6235284;28;83806;-67
2021/03/17 07:09:01;;;;;;;16.05;10.43;;;23.30;33.80;;;;;;6236238;28;83602;-68
2021/03/17 07:12:02;;;;;;;21.27;10.90;;;23.30;33.80;;;;;;6239777;28;83574;-67
2021/03/17 07:15:02;;;;;;;15.00;11.25;;;23.30;33.60;;;;;;6222908;28;87719;-68
2021/03/17 07:18:03;;;;;;;19.00;10.98;;;23.30;33.00;;;;;;6238678;28;84097;-68
2021/03/17 07:21:03;;;;;;;15.57;10.23;;;23.30;33.70;;;;;;6243293;28;83202;-69
2021/03/17 07:24:04;;;;;;;20.33;11.88;;;23.20;34.20;;;;;;6237690;27;88239;-69
2021/03/17 07:27:04;;;;;;;20.13;10.57;;;23.30;34.60;;;;;;6235226;28;83672;-69
2021/03/17 07:30:05;;;;;;;15.52;9.93;;;23.30;34.10;;;;;;6231776;28;86197;-69
2021/03/17 07:33:07;;;;;;;18.27;10.65;;;23.20;33.70;;;;;;6244442;28;82843;-68
2021/03/17 07:36:08;;;;;;;21.50;12.98;;;23.20;34.20;;;;;;6234586;28;83266;-67
2021/03/17 07:39:08;;;;;;;21.60;14.18;;;23.20;32.00;;;;;;6200132;28;84072;-67
2021/03/17 07:42:09;;;;;;;24.02;14.90;;;23.00;30.90;;;;;;6233568;28;83530;-67
2021/03/17 07:45:09;;;;;;;21.13;14.70;;;22.80;31.00;;;;;;6233278;28;83225;-67
2021/03/17 07:48:10;;;;;;;23.52;14.95;;;22.70;31.10;;;;;;6231467;27;90152;-66
2021/03/17 07:51:10;;;;;;;26.25;14.95;;;22.60;31.20;;;;;;6245175;28;84021;-66
2021/03/17 07:54:11;;;;;;;24.23;14.48;;;22.50;31.00;;;;;;6243326;27;83332;-67
2021/03/17 07:57:12;;;;;;;28.02;13.60;;;22.40;31.20;;;;;;6233522;28;83240;-69
2021/03/17 08:00:12;;;;;;;20.83;13.93;;;22.50;31.60;;;;;;6242310;28;83055;-66
2021/03/17 08:03:13;;;;;;;24.20;13.48;;;22.50;31.80;;;;;;6237114;28;83958;-65
2021/03/17 08:06:13;;;;;;;23.13;14.35;;;22.50;31.20;;;;;;6220494;28;83678;-65
2021/03/17 08:09:14;;;;;;;22.60;12.85;;;22.50;31.40;;;;;;6235153;28;83516;-66
2021/03/17 08:12:14;;;;;;;33.75;14.82;;;22.40;31.70;;;;;;6231180;28;84506;-68
2021/03/17 08:15:15;;;;;;;31.45;13.02;;;22.40;32.10;;;;;;6223618;28;85007;-70
2021/03/17 08:18:15;;;;;;;25.15;13.15;;;22.40;33.20;;;;;;6229427;28;83980;-68
2021/03/17 08:21:16;;;;;;;22.05;12.70;;;22.50;32.20;;;;;;6234375;28;83496;-66
2021/03/17 08:24:16;;;;;;;24.13;12.95;;;22.40;32.00;;;;;;6239323;27;84079;-66
2021/03/17 08:27:17;;;;;;;24.42;11.77;;;22.50;31.40;;;;;;6233981;28;83941;-66
2021/03/17 08:30:17;;;;;;;26.02;12.23;;;22.50;31.20;;;;;;6231455;28;83194;-67
2021/03/17 08:33:18;;;;;;;18.10;10.95;;;22.50;31.20;;;;;;6245415;28;83337;-71
2021/03/17 08:36:19;;;;;;;16.98;10.25;;;22.50;31.70;;;;;;6235641;28;83172;-70
2021/03/17 08:39:19;;;;;;;18.48;11.73;;;22.50;31.60;;;;;;6240243;28;83578;-69
2021/03/17 08:42:20;;;;;;;19.02;11.27;;;22.50;31.20;;;;;;6221800;28;84550;-67
2021/03/17 08:45:20;;;;;;;15.73;10.05;;;22.50;30.70;;;;;;6238547;28;85217;-69
2021/03/17 08:48:21;;;;;;;19.98;9.95;;;22.40;30.50;;;;;;6243016;27;83324;-66
2021/03/17 08:51:21;;;;;;;17.67;10.63;;;22.40;30.40;;;;;;6230840;28;84751;-66
2021/03/17 08:54:22;;;;;;;13.70;9.48;;;22.30;30.20;;;;;;6238210;28;83727;-66
2021/03/17 08:57:22;;;;;;;15.68;9.52;;;22.40;30.20;;;;;;6246921;28;84367;-66
2021/03/17 09:00:23;;;;;;;17.00;9.80;;;22.30;30.10;;;;;;6244452;28;80813;-66
2021/03/17 09:03:23;;;;;;;15.35;9.18;;;22.30;30.20;;;;;;6245364;28;81650;-65
2021/03/17 09:06:24;;;;;;;13.63;8.25;;;22.30;30.50;;;;;;6236902;28;87561;-66
2021/03/17 09:09:24;;;;;;;12.77;8.52;;;22.30;30.00;;;;;;6247275;28;80544;-66
2021/03/17 09:12:25;;;;;;;17.33;8.32;;;22.30;30.10;;;;;;6219193;28;81415;-66
2021/03/17 09:15:25;;;;;;;11.05;7.93;;;22.30;30.00;;;;;;6253098;27;80842;-67
2021/03/17 09:18:26;;;;;;;16.85;8.50;;;22.30;30.10;;;;;;6236895;28;80525;-66
2021/03/17 09:21:26;;;;;;;14.50;9.02;;;22.30;30.20;;;;;;6238728;28;80470;-67
2021/03/17 09:24:27;;;;;;;15.88;8.82;;;22.30;30.30;;;;;;6235113;28;80851;-67
2021/03/17 09:27:28;;;;;;;14.82;9.35;;;22.30;30.20;;;;;;6234448;28;81581;-65
2021/03/17 09:30:28;;;;;;;15.02;8.88;;;22.30;30.40;;;;;;6246904;28;80793;-65
2021/03/17 09:33:29;;;;;;;14.23;8.65;;;22.40;30.60;;;;;;6238176;28;81596;-66
2021/03/17 09:36:29;;;;;;;13.65;9.02;;;22.30;30.40;;;;;;6241464;28;80682;-65
2021/03/17 09:39:30;;;;;;;15.48;8.48;;;22.40;30.40;;;;;;6245669;28;80872;-65
2021/03/17 09:42:30;;;;;;;14.05;9.13;;;22.40;30.40;;;;;;6247237;28;81273;-65
2021/03/17 09:45:31;;;;;;;12.75;8.05;;;22.40;30.00;;;;;;6248331;28;80674;-65
2021/03/17 09:48:32;;;;;;;14.15;8.52;;;22.50;29.90;;;;;;6238484;27;81221;-66
2021/03/17 09:51:33;;;;;;;12.30;8.70;;;22.50;29.80;;;;;;6233838;28;82671;-66
2021/03/17 09:54:33;;;;;;;12.73;8.82;;;22.50;29.50;;;;;;6241185;28;80980;-66
2021/03/17 09:57:34;;;;;;;13.70;8.57;;;22.60;28.90;;;;;;6225291;28;83213;-67
2021/03/17 10:00:35;;;;;;;15.45;7.85;;;22.60;28.60;;;;;;6239819;28;80414;-66
2021/03/17 10:03:36;;;;;;;11.45;7.57;;;22.60;28.70;;;;;;6224252;28;82994;-65
2021/03/17 10:06:36;;;;;;;15.63;7.22;;;22.70;29.10;;;;;;6246637;28;81443;-65
2021/03/17 10:09:37;;;;;;;12.80;7.70;;;22.70;28.90;;;;;;6245467;28;80449;-64
2021/03/17 10:12:37;;;;;;;13.48;7.75;;;22.60;28.80;;;;;;6233528;28;80662;-65
2021/03/17 10:15:38;;;;;;;9.90;7.50;;;22.60;28.50;;;;;;6244423;27;81701;-64
2021/03/17 10:18:38;;;;;;;9.73;7.35;;;22.60;28.30;;;;;;6237725;27;80963;-65
2021/03/17 10:21:39;;;;;;;10.98;6.78;;;22.70;28.00;;;;;;6245723;28;80412;-66
2021/03/17 10:24:40;;;;;;;15.65;7.45;;;22.80;27.80;;;;;;6246053;28;82446;-64
2021/03/17 10:27:41;;;;;;;11.95;7.93;;;22.80;27.80;;;;;;6233650;28;80389;-66
2021/03/17 10:30:42;;;;;;;15.55;8.15;;;22.90;27.90;;;;;;6250659;28;80541;-66
2021/03/17 10:33:42;;;;;;;14.55;8.27;;;22.90;28.20;;;;;;6249286;28;80949;-67
2021/03/17 10:36:43;;;;;;;15.27;8.48;;;22.80;27.50;;;;;;6239858;28;80915;-68
2021/03/17 10:39:43;;;;;;;14.52;8.13;;;22.80;27.20;;;;;;6243793;28;81480;-68
2021/03/17 10:42:44;;;;;;;14.68;8.95;;;22.70;27.40;;;;;;6240595;27;80612;-68
2021/03/17 10:45:44;;;;;;;14.35;9.20;;;22.60;27.50;;;;;;6245589;28;81713;-69
2021/03/17 10:48:45;;;;;;;15.70;9.48;;;22.60;27.70;;;;;;6242832;28;80812;-69
2021/03/17 10:51:46;;;;;;;16.45;8.93;;;22.60;27.70;;;;;;6244335;28;82274;-70
2021/03/17 10:54:46;;;;;;;19.17;9.65;;;22.50;27.80;;;;;;6235584;28;81356;-69
2021/03/17 10:57:47;;;;;;;14.00;9.18;;;22.40;27.80;;;;;;6251051;28;80779;-69
2021/03/17 11:00:47;;;;;;;13.32;8.40;;;22.40;27.60;;;;;;6231416;28;81768;-68
2021/03/17 11:03:48;;;;;;;16.55;9.40;;;22.40;27.70;;;;;;6246857;28;83271;-68
2021/03/17 11:06:48;;;;;;;22.67;9.40;;;22.30;27.50;;;;;;6232789;28;82114;-68
2021/03/17 11:09:51;;;;;;;13.05;8.45;;;22.40;27.70;;;;;;6244413;28;81071;-71
2021/03/17 11:12:51;;;;;;;17.05;8.80;;;22.40;27.50;;;;;;6236383;28;81864;-68
2021/03/17 11:15:52;;;;;;;16.45;8.40;;;22.50;28.50;;;;;;6231974;28;81526;-68
2021/03/17 11:18:53;;;;;;;14.82;8.10;;;22.50;28.30;;;;;;6239898;27;80961;-68
2021/03/17 11:21:53;;;;;;;11.52;8.13;;;22.60;28.20;;;;;;6246805;27;80458;-68
2021/03/17 11:24:54;;;;;;;12.13;7.35;;;22.70;28.50;;;;;;6244935;28;81449;-67
2021/03/17 11:27:54;;;;;;;11.85;7.10;;;22.70;28.20;;;;;;6223154;28;80954;-68
2021/03/17 11:30:55;;;;;;;12.35;6.90;;;22.80;28.10;;;;;;6249512;28;80429;-65
2021/03/17 11:33:56;;;;;;;11.70;6.40;;;22.80;28.20;;;;;;6243204;28;80639;-67
2021/03/17 11:36:56;;;;;;;11.40;7.28;;;22.90;28.00;;;;;;6223590;28;83078;-68
2021/03/17 11:39:57;;;;;;;10.90;7.40;;;22.80;27.70;;;;;;6240635;28;83348;-67
2021/03/17 11:42:58;;;;;;;17.05;7.95;;;22.80;27.30;;;;;;6234887;28;80512;-68
2021/03/17 11:45:59;;;;;;;11.63;7.55;;;22.70;27.30;;;;;;6237669;28;80644;-67
2021/03/17 11:48:59;;;;;;;14.48;6.72;;;22.60;27.20;;;;;;6237904;27;80656;-68
2021/03/17 11:52:00;;;;;;;13.82;7.43;;;22.50;27.30;;;;;;6234290;28;81142;-68
2021/03/17 11:55:00;;;;;;;12.82;7.20;;;22.50;27.10;;;;;;6240240;28;80792;-68
2021/03/17 11:58:01;;;;;;;10.40;6.45;;;22.50;27.20;;;;;;6240111;28;81172;-68
2021/03/17 12:01:02;;;;;;;11.60;6.45;;;22.50;27.30;;;;;;6252044;28;81820;-67
2021/03/17 12:04:04;;;;;;;9.43;6.05;;;22.50;27.30;;;;;;6242876;28;80928;-67
2021/03/17 12:07:08;;;;;;;9.82;6.43;;;22.40;27.40;;;;;;6249303;27;80148;-67
2021/03/17 12:10:08;;;;;;;10.82;6.25;;;22.40;27.40;;;;;;6240034;28;82199;-69
2021/03/17 12:13:09;;;;;;;10.73;6.25;;;22.40;27.60;;;;;;6245339;28;81231;-68
2021/03/17 12:16:09;;;;;;;7.93;5.45;;;22.30;27.30;;;;;;6243437;28;80870;-68
2021/03/17 12:19:10;;;;;;;9.32;6.50;;;22.20;27.10;;;;;;6239437;28;81312;-64
2021/03/17 12:22:11;;;;;;;10.00;5.82;;;22.20;27.30;;;;;;6249200;27;80493;-67
2021/03/17 12:25:12;;;;;;;10.43;5.38;;;22.10;27.40;;;;;;6251824;27;83123;-67
2021/03/17 12:28:12;;;;;;;10.65;5.45;;;22.20;28.50;;;;;;6250039;27;81411;-67
2021/03/17 12:31:13;;;;;;;11.18;5.13;;;22.30;28.30;;;;;;6243732;27;82154;-66
2021/03/17 12:34:14;;;;;;;7.20;4.88;;;22.40;28.80;;;;;;6245831;27;80558;-66
2021/03/17 12:37:14;;;;;;;9.43;4.80;;;22.40;27.90;;;;;;6246295;27;81148;-67
2021/03/17 12:40:15;;;;;;;8.20;5.38;;;22.50;28.00;;;;;;6250084;27;81082;-68
2021/03/17 12:43:15;;;;;;;9.55;4.80;;;22.50;28.00;;;;;;6233181;28;80483;-67
2021/03/17 12:46:16;;;;;;;8.80;5.25;;;22.60;28.00;;;;;;6240661;27;80861;-67
2021/03/17 12:49:17;;;;;;;6.95;5.20;;;22.70;28.10;;;;;;6233310;27;80866;-68
2021/03/17 12:52:17;;;;;;;7.38;4.78;;;22.70;28.10;;;;;;6246689;27;80644;-67
2021/03/17 12:55:18;;;;;;;7.18;4.80;;;22.70;28.10;;;;;;6248024;27;80980;-66
2021/03/17 12:58:18;;;;;;;7.35;4.50;;;22.80;28.10;;;;;;6247394;27;80957;-67
2021/03/17 13:01:19;;;;;;;10.38;5.15;;;22.80;28.00;;;;;;6252604;27;80673;-66
2021/03/17 13:04:20;;;;;;;7.07;4.75;;;22.90;28.10;;;;;;6240854;27;81009;-68
2021/03/17 13:07:20;;;;;;;6.18;4.55;;;22.90;28.00;;;;;;6224043;28;81108;-67
2021/03/17 13:10:21;;;;;;;9.35;5.35;;;22.90;28.00;;;;;;6230696;27;81897;-66
2021/03/17 13:13:21;;;;;;;7.63;5.15;;;22.90;27.90;;;;;;6250385;28;80823;-70
2021/03/17 13:16:22;;;;;;;11.27;5.57;;;23.00;28.00;;;;;;6236818;27;83391;-68
2021/03/17 13:19:22;;;;;;;8.30;5.28;;;22.90;28.00;;;;;;6248477;27;82504;-68
2021/03/17 13:22:23;;;;;;;9.32;5.55;;;23.00;28.00;;;;;;6250228;27;82084;-70
2021/03/17 13:25:24;;;;;;;6.13;4.50;;;23.00;28.00;;;;;;6238467;27;81430;-66
2021/03/17 13:28:24;;;;;;;7.05;5.00;;;23.00;28.00;;;;;;6242847;27;80922;-67
2021/03/17 13:31:25;;;;;;;9.95;4.78;;;23.10;28.10;;;;;;6244916;27;80426;-67
2021/03/17 13:34:25;;;;;;;8.23;5.32;;;23.00;28.10;;;;;;6248157;27;80709;-67
2021/03/17 13:37:27;;;;;;;9.80;5.43;;;23.10;28.20;;;;;;6247443;27;80918;-67
2021/03/17 13:40:28;;;;;;;7.72;5.07;;;23.10;28.20;;;;;;6235974;28;80805;-64
2021/03/17 13:43:28;;;;;;;8.50;5.55;;;23.10;28.20;;;;;;6242978;28;81221;-66
2021/03/17 13:46:30;;;;;;;7.75;5.15;;;23.10;28.00;;;;;;6232251;28;81261;-67
2021/03/17 13:49:31;;;;;;;9.27;4.80;;;23.10;28.00;;;;;;6238673;28;81037;-66
2021/03/17 13:52:31;;;;;;;7.03;5.20;;;23.10;28.30;;;;;;6226260;28;83130;-68
2021/03/17 13:55:32;;;;;;;8.80;4.43;;;23.10;28.30;;;;;;6246614;28;80660;-66
2021/03/17 13:58:32;;;;;;;7.30;4.93;;;23.20;28.60;;;;;;6241146;28;80618;-67
2021/03/17 14:01:33;;;;;;;8.63;5.10;;;23.20;28.40;;;;;;6240553;28;83112;-68
2021/03/17 14:04:33;;;;;;;8.93;4.63;;;23.20;28.30;;;;;;6239250;28;80806;-68
2021/03/17 14:07:34;;;;;;;7.22;4.45;;;23.20;28.20;;;;;;6236415;28;80359;-67
2021/03/17 14:10:35;;;;;;;6.38;4.57;;;23.20;28.20;;;;;;6237592;28;80857;-66
2021/03/17 14:13:35;;;;;;;6.97;4.30;;;23.20;28.20;;;;;;6223797;28;82935;-67
2021/03/17 14:16:36;;;;;;;7.40;4.88;;;23.20;28.20;;;;;;6247107;28;80665;-67
2021/03/17 14:19:36;;;;;;;5.75;4.18;;;23.20;28.30;;;;;;6237095;27;80305;-67
2021/03/17 14:22:37;;;;;;;6.32;4.55;;;23.20;28.20;;;;;;6227508;27;83258;-67
2021/03/17 14:25:38;;;;;;;5.85;4.25;;;23.20;28.20;;;;;;6241463;28;81357;-68
2021/03/17 14:28:39;;;;;;;7.47;4.70;;;23.20;28.10;;;;;;6234047;28;80737;-67
2021/03/17 14:31:39;;;;;;;7.90;4.32;;;23.10;28.10;;;;;;6237877;28;80925;-64
2021/03/17 14:34:40;;;;;;;6.20;4.28;;;23.20;28.20;;;;;;6235827;27;80720;-67
2021/03/17 14:37:41;;;;;;;5.75;3.88;;;23.20;28.30;;;;;;6241481;27;81248;-67
2021/03/17 14:40:41;;;;;;;5.78;3.95;;;23.20;28.60;;;;;;6243038;28;81599;-66
2021/03/17 14:43:43;;;;;;;8.02;4.05;;;23.20;28.80;;;;;;6229160;27;83273;-65
2021/03/17 14:46:43;;;;;;;5.70;4.05;;;23.20;29.10;;;;;;6247019;27;81165;-65
2021/03/17 14:49:44;;;;;;;6.95;4.18;;;23.20;29.10;;;;;;6242838;27;81615;-67
2021/03/17 14:52:44;;;;;;;6.10;4.40;;;23.20;29.00;;;;;;6248236;27;80511;-66
2021/03/17 14:55:45;;;;;;;6.82;3.92;;;23.20;29.20;;;;;;6246255;27;81036;-66
2021/03/17 14:58:46;;;;;;;5.78;4.25;;;23.20;29.80;;;;;;6247027;27;81672;-67
2021/03/17 15:01:47;;;;;;;8.88;3.78;;;23.20;29.40;;;;;;6247964;27;81920;-65
2021/03/17 15:04:47;;;;;;;6.60;4.50;;;23.20;29.10;;;;;;6243716;27;80355;-65
2021/03/17 15:07:48;;;;;;;9.07;4.20;;;23.20;29.40;;;;;;6238763;27;82230;-67
2021/03/17 15:10:48;;;;;;;7.15;4.60;;;23.20;29.30;;;;;;6247269;27;82093;-66
2021/03/17 15:13:49;;;;;;;6.18;4.22;;;23.20;29.30;;;;;;6242747;27;80937;-66
2021/03/17 15:16:50;;;;;;;5.25;4.10;;;23.30;29.10;;;;;;6246833;27;81079;-66
2021/03/17 15:19:50;;;;;;;6.30;4.45;;;23.30;29.20;;;;;;6248057;27;80462;-64
2021/03/17 15:22:51;;;;;;;6.70;4.68;;;23.30;29.10;;;;;;6248313;27;81333;-64
2021/03/17 15:25:51;;;;;;;5.25;4.15;;;23.30;29.00;;;;;;6249412;27;80054;-65
2021/03/17 15:28:52;;;;;;;9.40;4.40;;;23.30;28.80;;;;;;6248493;27;81563;-67
2021/03/17 15:31:52;;;;;;;6.47;4.10;;;23.30;28.80;;;;;;6244962;27;80639;-68
2021/03/17 15:34:53;;;;;;;6.07;4.03;;;23.30;29.00;;;;;;6230563;27;80510;-67